Time;durP1;ratioP1;P1;durP2;ratioP2;P2;SDS_P1;SDS_P2;PMS_P1;PMS_P2;Temp;Humidity;BMP_temperature;BMP_pressure;BME280_temperature;BME280_humidity;BME280_pressure;Samples;Min_cycle;Max_cycle;Signal;HPM_P1;HPM_P2
2020/12/30 00:00:28;;;;;;;2.23;0.70;;;;;;;5.47;87.17;99377.31;1722403;80;21839;-62
2020/12/30 00:02:55;;;;;;;1.27;0.70;;;;;;;5.46;87.11;99381.36;1726175;80;21634;-62
2020/12/30 00:05:23;;;;;;;0.77;0.77;;;;;;;5.46;87.12;99391.58;1723655;80;21183;-63
2020/12/30 00:07:51;;;;;;;0.60;0.60;;;;;;;5.46;87.15;99388.91;1726423;80;21198;-62
2020/12/30 00:10:19;;;;;;;0.70;0.67;;;;;;;5.46;87.17;99393.38;1725595;80;21177;-63
2020/12/30 00:12:48;;;;;;;0.90;0.70;;;;;;;5.47;87.21;99396.45;1724019;80;21246;-63
2020/12/30 00:15:16;;;;;;;2.37;0.70;;;;;;;5.49;87.20;99391.48;1726542;80;21566;-62
2020/12/30 00:17:43;;;;;;;0.80;0.77;;;;;;;5.50;87.22;99390.56;1724054;80;21211;-62
2020/12/30 00:20:16;;;;;;;1.00;0.90;;;;;;;5.52;87.24;99395.86;1727947;80;21628;-63
2020/12/30 00:22:44;;;;;;;0.97;0.87;;;;;;;5.52;87.29;99401.20;1729231;80;21191;-63
2020/12/30 00:25:12;;;;;;;0.90;0.70;;;;;;;5.53;87.28;99399.78;1726660;80;21481;-63
2020/12/30 00:27:40;;;;;;;0.80;0.70;;;;;;;5.54;87.23;99400.66;1725159;80;21195;-63
2020/12/30 00:30:15;;;;;;;0.90;0.70;;;;;;;5.56;87.17;99398.82;1727358;80;21211;-63
2020/12/30 00:32:44;;;;;;;0.80;0.70;;;;;;;5.57;87.19;99400.57;1725304;80;21450;-62
2020/12/30 00:35:14;;;;;;;1.97;0.80;;;;;;;5.57;87.21;99392.10;1726268;80;21595;-62
2020/12/30 00:37:41;;;;;;;0.80;0.70;;;;;;;5.58;87.20;99390.30;1725070;80;22121;-62
2020/12/30 00:40:10;;;;;;;1.00;0.77;;;;;;;5.60;87.21;99389.34;1726795;80;21533;-62
2020/12/30 00:43:44;;;;;;;0.67;0.67;;;;;;;5.66;87.23;99385.11;1751640;79;22570;-55
2020/12/30 00:46:17;;;;;;;0.80;0.80;;;;;;;5.63;87.21;99393.67;1729629;80;20926;-55
2020/12/30 00:48:46;;;;;;;;;;;;;;;5.62;87.23;99394.14;1727575;80;21137;-57
2020/12/30 00:51:14;;;;;;;1.00;0.90;;;;;;;5.62;87.23;99394.59;1726480;80;20564;-59
2020/12/30 00:53:42;;;;;;;1.13;0.90;;;;;;;5.59;87.20;99392.05;1726547;80;21362;-61
2020/12/30 00:56:10;;;;;;;1.27;1.17;;;;;;;5.59;87.20;99387.59;1724394;80;21846;-60
2020/12/30 00:58:38;;;;;;;1.60;1.40;;;;;;;5.61;87.18;99387.05;1732702;80;21498;-61
2020/12/30 01:01:07;;;;;;;2.07;1.50;;;;;;;5.64;87.21;99388.75;1721843;80;21349;-59
2020/12/30 01:03:53;;;;;;;1.70;1.07;;;;;;;5.66;87.25;99386.91;1727499;80;21001;-60
2020/12/30 01:06:20;;;;;;;2.07;1.40;;;;;;;5.68;87.25;99389.95;1731663;80;21907;-57
2020/12/30 01:08:47;;;;;;;1.33;1.07;;;;;;;5.73;87.28;99400.92;1707881;82;21541;-59
2020/12/30 01:11:24;;;;;;;4.30;1.30;;;;;;;5.75;87.28;99394.61;1705460;82;21596;-61
2020/12/30 01:13:51;;;;;;;1.83;1.40;;;;;;;5.77;87.31;99394.10;1708746;82;22146;-60
2020/12/30 01:16:19;;;;;;;1.90;1.07;;;;;;;5.80;87.30;99402.45;1680389;83;21218;-58
2020/12/30 01:18:47;;;;;;;1.27;1.10;;;;;;;5.80;87.27;99403.33;1676053;83;21544;-60
2020/12/30 01:21:15;;;;;;;2.33;1.50;;;;;;;5.80;87.22;99399.78;1676564;83;21118;-58
2020/12/30 01:23:43;;;;;;;1.57;1.10;;;;;;;5.81;87.18;99406.87;1671894;83;21183;-58
2020/12/30 01:26:10;;;;;;;1.40;1.00;;;;;;;5.83;87.15;99403.69;1672115;84;21246;-59
2020/12/30 01:28:37;;;;;;;1.40;1.10;;;;;;;5.84;87.16;99405.44;1670377;84;21254;-59
2020/12/30 01:31:05;;;;;;;1.23;1.07;;;;;;;5.86;87.21;99401.80;1669904;84;21522;-59
2020/12/30 01:33:32;;;;;;;1.40;1.03;;;;;;;5.89;87.20;99407.05;1672250;84;21931;-62
2020/12/30 01:35:59;;;;;;;1.50;1.13;;;;;;;5.90;87.20;99394.56;1669797;83;21269;-60
2020/12/30 01:38:27;;;;;;;1.60;0.97;;;;;;;5.92;87.22;99391.39;1671112;84;22143;-61
2020/12/30 01:40:54;;;;;;;2.13;1.50;;;;;;;5.94;87.25;99385.53;1669216;84;21206;-59
2020/12/30 01:43:22;;;;;;;1.40;1.27;;;;;;;5.96;87.24;99374.30;1663369;84;21180;-59
2020/12/30 01:45:50;;;;;;;7.63;1.17;;;;;;;5.95;87.26;99370.80;1663258;84;21158;-60
2020/12/30 01:48:20;;;;;;;2.03;1.10;;;;;;;5.97;87.21;99381.39;1658560;84;21136;-62
2020/12/30 01:50:47;;;;;;;1.20;1.00;;;;;;;5.99;87.16;99380.89;1659812;84;22019;-59
2020/12/30 01:53:15;;;;;;;2.10;1.37;;;;;;;6.01;87.13;99382.59;1660171;84;21236;-61
2020/12/30 01:55:42;;;;;;;1.60;1.17;;;;;;;6.00;87.11;99379.97;1658992;84;21194;-61
2020/12/30 01:58:10;;;;;;;1.60;1.30;;;;;;;6.01;87.07;99377.24;1657447;84;22059;-59
2020/12/30 02:00:40;;;;;;;1.70;1.50;;;;;;;6.02;87.06;99370.98;1658262;84;21250;-60
2020/12/30 02:03:09;;;;;;;2.70;1.57;;;;;;;6.04;87.04;99374.44;1659685;84;21744;-58
2020/12/30 02:05:37;;;;;;;2.27;2.00;;;;;;;6.05;87.04;99379.33;1656205;84;21304;-62
2020/12/30 02:08:05;;;;;;;4.07;2.03;;;;;;;6.07;87.06;99381.48;1701993;82;21211;-60
2020/12/30 02:10:32;;;;;;;5.50;2.47;;;;;;;6.06;87.03;99370.38;1691712;82;21176;-59
2020/12/30 02:12:59;;;;;;;3.20;1.87;;;;;;;6.07;87.10;99371.67;1695401;82;21207;-61
2020/12/30 02:15:31;;;;;;;5.00;2.37;;;;;;;6.09;87.01;99378.30;1694864;82;22312;-57
2020/12/30 02:17:59;;;;;;;7.57;2.17;;;;;;;6.11;87.01;99375.58;1703005;82;21245;-59
2020/12/30 02:20:30;;;;;;;3.37;2.23;;;;;;;6.13;87.00;99377.24;1702666;82;21176;-59
2020/12/30 02:23:06;;;;;;;4.13;3.03;;;;;;;6.16;87.03;99374.94;1705698;82;21569;-60
2020/12/30 02:25:33;;;;;;;4.60;2.50;;;;;;;6.17;87.05;99372.21;1704756;82;21832;-62
2020/12/30 02:28:01;;;;;;;5.77;3.37;;;;;;;6.18;87.01;99375.30;1703460;82;21219;-59
2020/12/30 02:30:28;;;;;;;6.70;3.13;;;;;;;6.20;87.05;99369.44;1707424;82;21357;-59
2020/12/30 02:32:55;;;;;;;7.57;3.13;;;;;;;6.23;87.00;99365.77;1704306;82;21206;-60
2020/12/30 02:35:25;;;;;;;4.43;3.70;;;;;;;6.24;86.98;99368.84;1703686;82;21202;-59
2020/12/30 02:37:55;;;;;;;14.73;3.77;;;;;;;6.24;87.01;99375.53;1704137;82;21204;-60
2020/12/30 02:40:24;;;;;;;5.20;3.67;;;;;;;6.23;86.99;99370.64;1697041;82;20958;-60
2020/12/30 02:42:52;;;;;;;4.63;3.20;;;;;;;6.23;86.94;99364.42;1693340;82;21188;-61
2020/12/30 02:45:19;;;;;;;7.07;3.97;;;;;;;6.22;86.91;99360.87;1693748;83;21689;-59
2020/12/30 02:47:46;;;;;;;4.80;3.07;;;;;;;6.23;86.94;99362.63;1690962;82;21187;-61
2020/12/30 02:50:14;;;;;;;4.43;3.40;;;;;;;6.25;87.01;99355.43;1694757;82;21657;-59
2020/12/30 02:52:41;;;;;;;3.90;3.50;;;;;;;6.28;87.02;99361.14;1697523;82;22389;-61
2020/12/30 02:55:08;;;;;;;5.37;3.73;;;;;;;6.30;87.02;99364.14;1699184;82;21207;-61
2020/12/30 02:57:36;;;;;;;6.47;4.40;;;;;;;6.32;87.00;99356.94;1695736;82;21232;-61
2020/12/30 03:00:03;;;;;;;7.23;4.07;;;;;;;6.35;87.01;99355.97;1698973;82;21159;-60
2020/12/30 03:02:30;;;;;;;7.60;4.60;;;;;;;6.37;86.98;99347.43;1693905;82;21453;-60
2020/12/30 03:04:58;;;;;;;13.27;5.77;;;;;;;6.37;86.95;99350.98;1695771;82;21410;-62
2020/12/30 03:07:25;;;;;;;7.10;5.30;;;;;;;6.37;86.92;99349.64;1691207;82;21759;-60
2020/12/30 03:09:52;;;;;;;9.53;5.10;;;;;;;6.38;86.83;99350.02;1696290;82;21630;-62
2020/12/30 03:12:19;;;;;;;9.47;4.73;;;;;;;6.38;86.76;99353.19;1695193;82;21741;-61
2020/12/30 03:14:46;;;;;;;4.50;4.10;;;;;;;6.37;86.78;99354.11;1698160;82;21504;-62
2020/12/30 03:17:14;;;;;;;7.13;4.57;;;;;;;6.36;86.80;99353.70;1694405;82;21358;-62
2020/12/30 03:19:42;;;;;;;7.67;5.03;;;;;;;6.39;86.82;99346.88;1693860;82;21212;-61
2020/12/30 03:22:09;;;;;;;4.83;4.33;;;;;;;6.39;86.76;99342.88;1693504;82;21231;-59
2020/12/30 03:24:36;;;;;;;9.90;5.47;;;;;;;6.40;86.75;99338.81;1696944;82;22325;-59
2020/12/30 03:27:04;;;;;;;5.60;4.77;;;;;;;6.42;86.71;99334.29;1696607;82;21206;-59
2020/12/30 03:29:31;;;;;;;5.97;5.37;;;;;;;6.42;86.68;99337.42;1697153;82;21203;-60
2020/12/30 03:31:58;;;;;;;9.30;5.17;;;;;;;6.41;86.66;99339.69;1700228;82;21211;-59
2020/12/30 03:34:25;;;;;;;10.13;6.00;;;;;;;6.39;86.63;99337.53;1697426;82;21159;-59
2020/12/30 03:36:53;;;;;;;8.20;5.17;;;;;;;6.38;86.58;99334.48;1690027;83;21517;-60
2020/12/30 03:39:20;;;;;;;9.60;4.70;;;;;;;6.38;86.54;99323.78;1696509;82;21187;-60
2020/12/30 03:41:47;;;;;;;11.43;5.07;;;;;;;6.37;86.51;99325.58;1690296;82;21657;-61
2020/12/30 03:44:14;;;;;;;8.20;4.97;;;;;;;6.38;86.54;99325.13;1703046;82;21191;-61
2020/12/30 03:46:41;;;;;;;5.07;4.60;;;;;;;6.36;86.52;99320.29;1711179;82;22062;-61
2020/12/30 03:49:08;;;;;;;4.77;4.33;;;;;;;6.36;86.54;99329.64;1708885;82;21198;-60
2020/12/30 03:51:36;;;;;;;7.27;6.23;;;;;;;6.38;86.54;99329.97;1708275;82;21220;-60
2020/12/30 03:54:03;;;;;;;6.90;5.17;;;;;;;6.41;86.53;99326.31;1710212;82;22283;-61
2020/12/30 03:56:30;;;;;;;7.10;6.40;;;;;;;6.40;86.50;99331.25;1710913;82;21207;-60
2020/12/30 03:58:58;;;;;;;9.30;7.17;;;;;;;6.39;86.45;99327.70;1709012;82;21616;-58
2020/12/30 04:01:27;;;;;;;11.30;7.67;;;;;;;6.37;86.40;99334.06;1710973;82;21605;-60
2020/12/30 04:03:54;;;;;;;8.23;6.73;;;;;;;6.34;86.37;99330.16;1709560;82;21190;-60
2020/12/30 04:06:22;;;;;;;6.03;5.30;;;;;;;6.33;86.34;99323.06;1710867;82;22696;-59
2020/12/30 04:08:49;;;;;;;9.93;5.57;;;;;;;6.32;86.38;99331.55;1710862;82;21235;-60
2020/12/30 04:11:16;;;;;;;9.93;5.60;;;;;;;6.31;86.41;99332.94;1709342;82;21159;-59
2020/12/30 04:13:43;;;;;;;6.73;6.20;;;;;;;6.33;86.42;99340.44;1710038;82;21179;-60
2020/12/30 04:16:10;;;;;;;6.57;5.97;;;;;;;6.35;86.42;99345.27;1712742;82;21220;-61
2020/12/30 04:18:38;;;;;;;6.97;6.23;;;;;;;6.36;86.39;99349.23;1709578;82;21392;-62
2020/12/30 04:21:06;;;;;;;6.83;6.23;;;;;;;6.37;86.36;99354.11;1711911;82;21833;-61
2020/12/30 04:23:33;;;;;;;7.67;6.87;;;;;;;6.37;86.35;99355.45;1712810;82;21247;-61
2020/12/30 04:26:01;;;;;;;9.17;8.20;;;;;;;6.37;86.29;99355.45;1708209;82;21207;-59
2020/12/30 04:28:29;;;;;;;9.93;7.80;;;;;;;6.35;86.23;99351.95;1708380;82;21202;-61
2020/12/30 04:30:56;;;;;;;8.50;7.20;;;;;;;6.33;86.18;99341.78;1708026;82;21386;-60
2020/12/30 04:33:23;;;;;;;7.20;6.47;;;;;;;6.32;86.16;99344.91;1709726;82;21514;-60
2020/12/30 04:35:51;;;;;;;7.10;6.50;;;;;;;6.29;86.14;99334.36;1711162;82;21618;-62
2020/12/30 04:38:18;;;;;;;8.07;6.97;;;;;;;6.28;86.09;99325.92;1709460;82;21238;-60
2020/12/30 04:40:45;;;;;;;7.57;6.90;;;;;;;6.26;86.08;99330.45;1709811;82;21549;-60
2020/12/30 04:43:13;;;;;;;10.33;7.83;;;;;;;6.26;86.06;99329.11;1705183;82;21590;-62
2020/12/30 04:45:40;;;;;;;8.27;7.57;;;;;;;6.24;86.05;99320.27;1707260;81;21525;-62
2020/12/30 04:48:08;;;;;;;10.00;8.23;;;;;;;6.24;86.04;99326.08;1697644;82;21206;-59
2020/12/30 04:50:35;;;;;;;9.97;8.97;;;;;;;6.22;85.99;99333.28;1691571;82;21717;-60
2020/12/30 04:53:02;;;;;;;10.27;9.30;;;;;;;6.18;85.92;99327.66;1699707;82;21180;-60
2020/12/30 04:55:31;;;;;;;8.93;7.23;;;;;;;6.14;85.90;99326.89;1695352;82;21246;-60
2020/12/30 04:58:06;;;;;;;9.20;6.87;;;;;;;6.12;85.91;99325.22;1696897;82;21199;-62
2020/12/30 05:00:37;;;;;;;8.13;7.40;;;;;;;6.07;85.92;99326.25;1698856;82;21188;-60
2020/12/30 05:03:09;;;;;;;8.03;7.13;;;;;;;6.04;86.02;99323.67;1696544;82;21184;-59
2020/12/30 05:05:37;;;;;;;6.63;6.10;;;;;;;6.05;86.04;99323.21;1692691;83;21144;-59
2020/12/30 05:08:13;;;;;;;7.77;7.00;;;;;;;6.04;86.06;99322.80;1698054;82;22282;-59
2020/12/30 05:10:42;;;;;;;7.27;6.07;;;;;;;6.04;86.06;99327.69;1698415;82;21570;-60
2020/12/30 05:13:11;;;;;;;7.10;6.40;;;;;;;6.04;86.10;99329.48;1696632;82;21208;-62
2020/12/30 05:15:38;;;;;;;8.77;7.87;;;;;;;6.05;86.09;99332.56;1696615;82;21203;-62
2020/12/30 05:18:08;;;;;;;8.13;7.33;;;;;;;6.07;86.10;99342.74;1695453;82;21240;-61
2020/12/30 05:20:35;;;;;;;8.20;7.40;;;;;;;6.07;86.13;99345.41;1696264;82;22575;-61
2020/12/30 05:23:05;;;;;;;9.73;7.30;;;;;;;6.06;86.09;99347.67;1697022;82;21212;-62
2020/12/30 05:25:35;;;;;;;7.10;6.40;;;;;;;;;;1697564;82;21112;-59
2020/12/30 05:28:05;;;;;;;6.63;6.03;;;;;;;6.02;86.11;99346.05;1695669;82;21512;-60
2020/12/30 05:30:33;;;;;;;5.67;5.27;;;;;;;6.01;86.11;99349.66;1696890;82;21590;-62
2020/12/30 05:33:01;;;;;;;6.97;6.27;;;;;;;6.01;86.14;99352.33;1698446;82;21499;-61
2020/12/30 05:35:28;;;;;;;5.87;5.37;;;;;;;6.02;86.20;99349.60;1695735;82;21653;-60
2020/12/30 05:37:55;;;;;;;6.73;6.10;;;;;;;6.04;86.24;99350.86;1695545;82;21219;-62
2020/12/30 05:40:26;;;;;;;5.77;5.33;;;;;;;6.06;86.23;99351.68;1692914;82;21450;-60
2020/12/30 05:42:53;;;;;;;6.77;6.10;;;;;;;6.08;86.21;99352.50;1692495;82;21240;-60
2020/12/30 05:45:22;;;;;;;7.47;6.83;;;;;;;6.10;86.20;99356.46;1708938;82;21382;-62
2020/12/30 05:47:50;;;;;;;9.37;8.37;;;;;;;6.12;86.23;99369.31;1712722;82;21224;-61
2020/12/30 05:50:23;;;;;;;8.40;7.50;;;;;;;6.10;86.17;99365.81;1711975;82;21499;-62
2020/12/30 05:52:51;;;;;;;7.53;5.60;;;;;;;6.09;86.12;99372.95;1710624;82;21132;-60
2020/12/30 05:55:26;;;;;;;5.93;5.43;;;;;;;6.10;86.10;99377.84;1709112;82;21127;-60
2020/12/30 05:57:53;;;;;;;;;;;;;;;6.09;86.10;99371.62;1688810;83;21212;-62
2020/12/30 06:00:22;;;;;;;7.07;6.00;;;;;;;6.09;86.10;99370.28;1686080;83;20327;-60
2020/12/30 06:02:49;;;;;;;6.73;6.03;;;;;;;6.10;86.10;99373.83;1684680;82;21246;-61
2020/12/30 06:05:20;;;;;;;6.50;5.53;;;;;;;6.12;86.10;99373.32;1709212;82;21142;-60
2020/12/30 06:07:49;;;;;;;7.03;6.30;;;;;;;6.14;86.09;99375.45;1715114;82;21625;-61
2020/12/30 06:10:19;;;;;;;6.83;6.33;;;;;;;6.15;86.03;99372.72;1708265;82;21209;-61
2020/12/30 06:12:58;;;;;;;7.87;7.17;;;;;;;6.16;85.97;99378.48;1720211;82;21191;-61
2020/12/30 06:15:28;;;;;;;8.47;7.73;;;;;;;6.15;85.90;99378.07;1707330;82;21206;-62
2020/12/30 06:18:00;;;;;;;7.97;7.27;;;;;;;6.12;85.83;99378.66;1716946;82;21198;-62
2020/12/30 06:20:32;;;;;;;7.10;6.40;;;;;;;6.11;85.77;99379.59;1713027;82;21494;-60
2020/12/30 06:23:13;;;;;;;7.67;6.97;;;;;;;6.08;85.71;99376.09;1718600;82;21689;-63
2020/12/30 06:25:45;;;;;;;8.43;7.57;;;;;;;6.08;85.75;99384.11;1716099;82;21981;-61
2020/12/30 06:28:19;;;;;;;9.90;8.80;;;;;;;6.08;85.78;99376.09;1718132;82;21203;-61
2020/12/30 06:30:48;;;;;;;8.40;7.70;;;;;;;6.10;85.79;99375.17;1709530;82;21262;-62
2020/12/30 06:33:17;;;;;;;9.27;8.37;;;;;;;6.12;85.73;99375.53;1712303;82;21230;-61
2020/12/30 06:35:45;;;;;;;10.57;8.47;;;;;;;6.13;85.70;99379.05;1683583;82;22033;-60
2020/12/30 06:41:06;;;;;;;13.20;7.80;;;;;;;6.12;85.59;99357.29;1839397;76;22714;-57
2020/12/30 06:43:43;;;;;;;10.43;7.50;;;;;;;6.03;85.57;99355.36;1815713;77;21140;-58
2020/12/30 06:46:12;;;;;;;8.23;6.70;;;;;;;6.02;85.61;99352.73;1803685;77;22385;-57
2020/12/30 06:49:00;;;;;;;6.40;5.90;;;;;;;6.00;85.61;99355.45;1815013;77;21821;-57
2020/12/30 06:51:40;;;;;;;6.80;6.20;;;;;;;5.99;85.66;99354.17;1808010;77;21172;-63
2020/12/30 06:54:07;;;;;;;6.70;6.07;;;;;;;5.99;85.76;99348.83;1816359;77;21590;-60
2020/12/30 06:56:39;;;;;;;7.57;6.87;;;;;;;6.01;85.79;99346.98;1810712;77;20977;-58
2020/12/30 06:59:08;;;;;;;7.80;7.10;;;;;;;6.02;85.83;99350.94;1810721;77;21205;-60
2020/12/30 07:01:58;;;;;;;7.57;6.83;;;;;;;6.07;85.81;99345.41;1807586;77;21023;-61
2020/12/30 07:04:27;;;;;;;11.27;7.90;;;;;;;6.08;85.78;99346.70;1809833;77;21542;-62
2020/12/30 07:06:57;;;;;;;10.00;8.70;;;;;;;6.11;85.76;99359.55;1797406;77;21583;-61
2020/12/30 07:09:33;;;;;;;10.50;8.77;;;;;;;6.12;85.75;99359.50;1768710;78;21166;-62
2020/12/30 07:12:02;;;;;;;9.60;8.43;;;;;;;6.08;85.67;99357.39;1772406;78;21370;-59
2020/12/30 07:14:31;;;;;;;8.30;7.33;;;;;;;6.07;85.63;99359.64;1771123;78;21206;-60
2020/12/30 07:17:03;;;;;;;9.07;8.17;;;;;;;6.08;85.67;99366.73;1778020;78;21454;-58
2020/12/30 07:19:35;;;;;;;7.87;7.23;;;;;;;6.10;85.72;99369.82;1785341;78;21191;-58
2020/12/30 07:22:15;;;;;;;9.03;7.37;;;;;;;6.10;85.72;99373.83;1779639;78;21597;-60
2020/12/30 07:24:56;;;;;;;6.90;6.27;;;;;;;6.10;85.74;99368.02;1776263;78;22304;-59
2020/12/30 07:27:28;;;;;;;7.63;6.93;;;;;;;6.13;85.75;99370.56;1786677;78;21214;-60
2020/12/30 07:29:56;;;;;;;7.80;7.10;;;;;;;6.15;85.70;99367.84;1780377;78;21188;-59
2020/12/30 07:32:23;;;;;;;8.13;7.43;;;;;;;6.15;85.72;99370.52;1779852;78;22201;-61
2020/12/30 07:34:52;;;;;;;8.90;8.00;;;;;;;6.16;85.74;99370.92;1785660;78;21179;-60
2020/12/30 07:37:19;;;;;;;8.10;7.23;;;;;;;6.16;85.72;99369.59;1780895;78;22537;-58
2020/12/30 07:39:48;;;;;;;12.83;8.10;;;;;;;6.15;85.64;99358.03;1777127;78;21173;-57
2020/12/30 07:42:19;;;;;;;7.13;6.53;;;;;;;6.15;85.58;99353.14;1791817;78;21430;-60
2020/12/30 07:44:52;;;;;;;13.23;8.10;;;;;;;6.14;85.60;99354.07;1781142;78;21205;-61
2020/12/30 07:47:22;;;;;;;9.73;7.93;;;;;;;6.13;85.65;99352.32;1786780;78;21158;-57
2020/12/30 07:49:50;;;;;;;10.03;8.07;;;;;;;6.14;85.66;99354.07;1762714;79;21763;-58
2020/12/30 07:52:17;;;;;;;8.63;7.00;;;;;;;6.17;85.66;99351.30;1718456;81;21687;-59
2020/12/30 07:54:45;;;;;;;9.27;8.07;;;;;;;6.18;85.63;99351.70;1765117;79;21206;-59
2020/12/30 07:57:13;;;;;;;17.47;8.03;;;;;;;6.18;85.63;99360.60;1715229;81;21206;-61
2020/12/30 07:59:41;;;;;;;15.63;8.77;;;;;;;6.15;85.63;99358.03;1763433;79;21110;-59
2020/12/30 08:02:15;;;;;;;15.23;8.80;;;;;;;6.14;85.65;99358.95;1718027;81;21329;-62
2020/12/30 08:04:45;;;;;;;12.73;9.03;;;;;;;6.15;85.68;99352.69;1768766;79;21199;-64
2020/12/30 08:07:13;;;;;;;10.80;8.73;;;;;;;6.17;85.67;99354.84;1720467;81;21134;-58
2020/12/30 08:09:42;;;;;;;9.60;7.77;;;;;;;6.19;85.68;99346.31;1769705;79;21481;-58
2020/12/30 08:12:14;;;;;;;8.73;7.80;;;;;;;6.21;85.69;99349.78;1719327;81;21182;-61
2020/12/30 08:14:44;;;;;;;9.90;8.53;;;;;;;6.23;85.74;99350.59;1763361;79;21179;-60
2020/12/30 08:17:15;;;;;;;11.17;8.47;;;;;;;6.25;85.72;99352.76;1704374;81;21251;-60
2020/12/30 08:19:47;;;;;;;10.40;9.33;;;;;;;6.28;85.79;99363.81;1685487;81;21504;-62
2020/12/30 08:22:19;;;;;;;9.63;8.63;;;;;;;6.28;85.79;99362.47;1765215;79;21123;-59
2020/12/30 08:24:52;;;;;;;9.20;8.03;;;;;;;6.28;85.81;99359.34;1764086;79;21862;-62
2020/12/30 08:27:29;;;;;;;9.13;8.13;;;;;;;6.30;85.82;99369.95;1760608;79;22354;-59
2020/12/30 08:29:59;;;;;;;9.63;8.50;;;;;;;6.33;85.79;99369.84;1745173;80;21466;-59
2020/12/30 08:32:47;;;;;;;7.27;6.57;;;;;;;6.36;85.84;99372.41;1716491;81;21159;-58
2020/12/30 08:35:19;;;;;;;13.20;7.03;;;;;;;6.38;85.83;99371.91;1742712;80;20975;-60
2020/12/30 08:38:08;;;;;;;6.70;5.97;;;;;;;6.40;85.85;99374.03;1746447;80;21679;-58
2020/12/30 08:40:36;;;;;;;5.33;4.73;;;;;;;6.44;85.92;99368.99;1721737;80;21233;-61
2020/12/30 08:43:24;;;;;;;3.90;3.60;;;;;;;6.49;85.91;99367.47;1722156;80;21202;-59
2020/12/30 08:45:56;;;;;;;6.10;4.53;;;;;;;6.52;85.91;99364.22;1721193;80;21636;-62
2020/12/30 08:48:23;;;;;;;6.80;4.97;;;;;;;6.52;85.92;99360.22;1748804;79;21052;-64
2020/12/30 08:50:52;;;;;;;4.87;4.47;;;;;;;6.52;85.94;99355.33;1770369;79;21178;-62
2020/12/30 08:53:36;;;;;;;4.27;3.87;;;;;;;6.54;85.93;99355.69;1770486;79;21649;-62
2020/12/30 08:56:06;;;;;;;5.23;3.27;;;;;;;6.55;85.93;99358.73;1759648;79;21205;-62
2020/12/30 08:58:34;;;;;;;5.97;3.57;;;;;;;6.58;85.94;99353.28;1770388;79;21945;-62
2020/12/30 09:01:06;;;;;;;3.80;3.03;;;;;;;6.60;85.96;99349.22;1772142;79;21114;-62
2020/12/30 09:03:33;;;;;;;5.33;3.90;;;;;;;6.65;85.98;99352.58;1739400;79;21620;-62
2020/12/30 09:06:01;;;;;;;4.73;3.27;;;;;;;6.68;85.95;99341.77;1772037;78;21368;-63
2020/12/30 09:08:31;;;;;;;6.20;4.30;;;;;;;6.72;85.92;99338.06;1765797;79;21146;-61
2020/12/30 09:10:58;;;;;;;5.50;3.95;;;;;;;6.73;85.86;99339.77;1766876;79;21134;-62
2020/12/30 09:13:30;;;;;;;8.90;4.58;;;;;;;6.73;85.83;99339.77;1768941;79;23119;-61
2020/12/30 09:16:04;;;;;;;4.12;3.67;;;;;;;6.72;85.82;99330.87;1770865;79;21181;-62
2020/12/30 09:18:32;;;;;;;7.60;3.63;;;;;;;6.71;85.74;99335.84;1766801;79;22414;-62
2020/12/30 09:20:59;;;;;;;4.62;2.95;;;;;;;6.71;85.67;99337.19;1767467;79;21233;-62
2020/12/30 09:23:27;;;;;;;3.93;3.33;;;;;;;6.68;85.70;99341.30;1763865;79;21174;-62
2020/12/30 09:28:34;;;;;;;5.23;3.33;;;;;;;6.75;85.82;99321.88;1871807;75;22815;-60
2020/12/30 09:31:05;;;;;;;6.17;4.43;;;;;;;6.71;85.84;99321.14;1780977;78;21928;-61
2020/12/30 09:33:34;;;;;;;4.93;4.43;;;;;;;6.73;85.83;99313.02;1785833;78;21267;-61
2020/12/30 09:36:08;;;;;;;6.27;4.67;;;;;;;6.73;85.79;99319.25;1785575;78;21052;-60
2020/12/30 09:38:36;;;;;;;;;;;;;;;6.75;85.73;99318.73;1780924;78;21463;-61
2020/12/30 09:41:08;;;;;;;6.07;2.83;;;;;;;6.76;85.71;99319.61;1779425;78;20305;-60
2020/12/30 09:43:46;;;;;;;3.67;3.33;;;;;;;6.76;85.69;99308.44;1775902;79;21225;-62
2020/12/30 09:46:21;;;;;;;7.17;3.77;;;;;;;6.78;85.72;99305.25;1771087;79;21242;-61
2020/12/30 09:48:48;;;;;;;;;;;;;;;6.80;85.69;99302.02;1783200;79;21004;-60
2020/12/30 09:51:17;;;;;;;4.10;2.97;;;;;;;6.82;85.65;99302.84;1780040;78;20585;-61
2020/12/30 09:53:44;;;;;;;5.77;4.03;;;;;;;6.83;85.67;99299.23;1805858;78;21596;-60
2020/12/30 09:56:13;;;;;;;5.07;3.83;;;;;;;6.87;85.67;99304.01;1781845;78;21180;-58
2020/12/30 09:58:41;;;;;;;7.27;5.53;;;;;;;6.88;85.57;99302.20;1785570;79;21006;-60
2020/12/30 10:01:08;;;;;;;7.20;4.93;;;;;;;6.84;85.55;99300.98;1787158;79;21462;-60
2020/12/30 10:03:36;;;;;;;7.37;3.90;;;;;;;6.88;85.56;99311.57;1814500;78;21476;-59
2020/12/30 10:06:05;;;;;;;5.40;3.60;;;;;;;6.89;85.54;99303.45;1769099;78;21151;-61
2020/12/30 10:08:32;;;;;;;7.30;3.90;;;;;;;6.90;85.46;99300.31;1757128;79;21183;-59
2020/12/30 10:10:59;;;;;;;6.73;3.03;;;;;;;6.92;85.49;99301.13;1762168;79;21187;-61
2020/12/30 10:13:26;;;;;;;3.90;3.53;;;;;;;6.93;85.47;99290.84;1764812;79;21208;-62
2020/12/30 10:15:53;;;;;;;5.03;2.77;;;;;;;6.95;85.42;99289.85;1763849;79;21642;-60
2020/12/30 10:18:20;;;;;;;4.50;2.95;;;;;;;6.95;85.37;99287.17;1758884;80;21203;-62
2020/12/30 10:20:51;;;;;;;6.73;3.40;;;;;;;6.97;85.35;99287.12;1762427;79;21614;-60
2020/12/30 10:23:18;;;;;;;7.47;4.90;;;;;;;6.96;85.26;99292.94;1766667;79;21633;-59
2020/12/30 10:25:45;;;;;;;8.43;5.57;;;;;;;6.93;85.27;99285.02;1767007;79;21174;-60
2020/12/30 10:28:12;;;;;;;4.43;3.83;;;;;;;6.94;85.21;99285.89;1764161;79;21672;-62
2020/12/30 10:30:39;;;;;;;6.50;3.80;;;;;;;6.95;85.17;99272.92;1765258;79;21812;-60
2020/12/30 10:33:08;;;;;;;4.33;3.53;;;;;;;6.93;85.16;99277.45;1762739;79;21167;-61
2020/12/30 10:35:35;;;;;;;7.22;4.30;;;;;;;6.94;85.19;99265.83;1766566;79;21147;-62
2020/12/30 10:38:02;;;;;;;4.10;3.53;;;;;;;6.94;85.16;99265.36;1767560;79;21354;-60
2020/12/30 10:40:30;;;;;;;5.30;2.97;;;;;;;6.95;85.18;99260.88;1762963;79;21267;-60
2020/12/30 10:42:57;;;;;;;5.80;4.12;;;;;;;6.97;85.13;99256.34;1785750;78;21126;-60
2020/12/30 10:45:25;;;;;;;6.80;3.80;;;;;;;6.98;85.10;99252.70;1774956;78;21852;-58
2020/12/30 10:47:52;;;;;;;6.30;4.65;;;;;;;6.97;85.07;99246.98;1771224;78;21794;-60
2020/12/30 10:50:19;;;;;;;3.80;3.33;;;;;;;6.95;85.07;99250.18;1772521;78;21187;-59
2020/12/30 10:52:46;;;;;;;4.62;3.85;;;;;;;6.96;85.05;99246.57;1768946;78;21175;-58
2020/12/30 10:55:13;;;;;;;3.93;3.53;;;;;;;6.96;85.04;99244.77;1781178;78;21049;-61
2020/12/30 10:57:41;;;;;;;3.67;3.37;;;;;;;6.96;84.98;99241.22;1757014;79;21193;-60
2020/12/30 11:00:10;;;;;;;5.00;3.50;;;;;;;6.96;85.00;99247.91;1775245;78;21021;-60
2020/12/30 11:02:38;;;;;;;6.07;3.47;;;;;;;6.95;84.94;99240.81;1771336;78;21108;-61
2020/12/30 11:05:05;;;;;;;5.60;4.07;;;;;;;6.95;84.91;99239.48;1769681;78;21498;-61
2020/12/30 11:07:32;;;;;;;5.58;4.40;;;;;;;6.96;84.91;99227.84;1761723;79;21374;-59
2020/12/30 11:10:00;;;;;;;8.13;4.07;;;;;;;6.97;84.92;99226.45;1760574;79;21226;-61
2020/12/30 11:12:27;;;;;;;5.73;4.37;;;;;;;6.99;84.92;99224.55;1764068;79;21613;-59
2020/12/30 11:14:54;;;;;;;6.25;4.03;;;;;;;6.99;84.79;99223.68;1760663;79;21500;-58
2020/12/30 11:17:21;;;;;;;6.63;5.43;;;;;;;6.97;84.72;99220.22;1764433;79;21203;-61
2020/12/30 11:19:49;;;;;;;4.53;3.87;;;;;;;6.92;84.69;99217.72;1765747;79;21247;-58
2020/12/30 11:22:16;;;;;;;5.45;3.02;;;;;;;6.90;84.68;99217.38;1763161;79;21186;-61
2020/12/30 11:24:43;;;;;;;3.92;3.50;;;;;;;6.87;84.73;99213.05;1759922;79;21386;-60
2020/12/30 11:27:10;;;;;;;3.47;2.87;;;;;;;6.85;84.74;99210.89;1761808;79;21978;-59
2020/12/30 11:29:37;;;;;;;4.15;2.65;;;;;;;6.86;84.72;99209.96;1760873;79;21198;-60
2020/12/30 11:32:05;;;;;;;3.90;2.50;;;;;;;6.86;84.71;99203.27;1758369;79;21201;-60
2020/12/30 11:34:32;;;;;;;2.60;2.37;;;;;;;6.89;84.70;99207.64;1762412;79;21183;-59
2020/12/30 11:36:59;;;;;;;2.23;1.80;;;;;;;6.90;84.63;99204.00;1759332;79;22265;-57
2020/12/30 11:39:27;;;;;;;2.70;2.50;;;;;;;6.90;84.56;99203.53;1759516;79;21225;-60
2020/12/30 11:41:54;;;;;;;1.83;1.63;;;;;;;6.90;84.47;99198.64;1757312;79;21450;-58
2020/12/30 11:44:21;;;;;;;3.73;3.00;;;;;;;6.89;84.48;99200.45;1759692;79;21510;-60
2020/12/30 11:46:52;;;;;;;1.90;1.80;;;;;;;6.88;84.49;99202.75;1760593;79;21182;-59
2020/12/30 11:49:19;;;;;;;4.25;2.17;;;;;;;6.88;84.44;99201.41;1760172;79;22329;-59
2020/12/30 11:51:47;;;;;;;1.60;1.50;;;;;;;6.89;84.38;99198.27;1762167;79;21158;-59
2020/12/30 11:54:14;;;;;;;2.87;1.70;;;;;;;6.89;84.41;99197.77;1761677;79;21579;-58
2020/12/30 11:56:41;;;;;;;3.03;2.13;;;;;;;6.90;84.40;99199.98;1759489;79;21442;-59